Time;durP1;ratioP1;P1;durP2;ratioP2;P2;SDS_P1;SDS_P2;PMS_P1;PMS_P2;Temp;Humidity;BMP_temperature;BMP_pressure;BME280_temperature;BME280_humidity;BME280_pressure;Samples;Min_cycle;Max_cycle;Signal;HPM_P1;HPM_P2
2023/09/06 00:00:29;;;;;;;38.28;36.30;;;;;;;;;;5036084;28;20033;-68
2023/09/06 00:02:56;;;;;;;40.13;38.08;;;;;;;;;;5036198;28;20061;-67
2023/09/06 00:05:21;;;;;;;40.35;38.20;;;;;;;;;;5036107;28;20101;-67
2023/09/06 00:07:46;;;;;;;38.92;36.85;;;;;;;;;;5037512;28;20765;-67
2023/09/06 00:10:11;;;;;;;44.78;42.42;;;;;;;;;;5037233;28;20166;-68
2023/09/06 00:12:40;;;;;;;37.60;35.65;;;;;;;;;;5039054;28;20375;-67
2023/09/06 00:15:06;;;;;;;34.63;32.80;;;;;;;;;;5035465;28;20029;-66
2023/09/06 00:17:31;;;;;;;37.83;35.88;;;;;;;;;;5034918;28;20047;-68
2023/09/06 00:19:56;;;;;;;35.45;33.45;;;;;;;;;;5035229;28;20028;-68
2023/09/06 00:22:22;;;;;;;28.95;27.40;;;;;;;;;;5037799;28;20031;-71
2023/09/06 00:24:47;;;;;;;33.70;31.92;;;;;;;;;;5035390;28;20325;-68
2023/09/06 00:27:14;;;;;;;32.65;30.88;;;;;;;;;;5042410;28;20140;-69
2023/09/06 00:29:41;;;;;;;34.10;32.28;;;;;;;;;;5037533;28;20357;-69
2023/09/06 00:32:06;;;;;;;32.80;31.10;;;;;;;;;;5040094;28;20381;-69
2023/09/06 00:34:33;;;;;;;37.60;35.67;;;;;;;;;;5038782;28;20029;-69
2023/09/06 00:37:00;;;;;;;35.67;33.83;;;;;;;;;;5038975;28;20037;-69
2023/09/06 00:39:28;;;;;;;31.10;29.48;;;;;;;;;;5041127;28;20321;-68
2023/09/06 00:41:53;;;;;;;28.42;26.92;;;;;;;;;;5053568;28;20025;-68
2023/09/06 00:44:19;;;;;;;26.42;25.02;;;;;;;;;;5039454;28;20078;-69
2023/09/06 00:46:45;;;;;;;26.75;25.30;;;;;;;;;;5039659;28;20045;-65
2023/09/06 00:49:10;;;;;;;26.50;24.95;;;;;;;;;;5038661;28;20024;-68
2023/09/06 00:51:36;;;;;;;27.92;26.42;;;;;;;;;;5043493;28;20044;-65
2023/09/06 00:54:02;;;;;;;25.90;24.38;;;;;;;;;;5037975;28;20459;-69
2023/09/06 00:56:28;;;;;;;25.95;23.75;;;;;;;;;;5042284;28;20025;-69
2023/09/06 00:58:54;;;;;;;25.42;24.10;;;;;;;;;;5026483;28;20037;-67
2023/09/06 01:01:19;;;;;;;24.80;23.38;;;;;;;;;;5040412;28;20033;-69
2023/09/06 01:03:45;;;;;;;24.40;23.10;;;;;;;;;;5040455;28;20037;-69
2023/09/06 01:06:33;;;;;;;25.80;24.20;;;;;;;;;;5042889;28;20029;-69
2023/09/06 01:08:59;;;;;;;24.13;22.77;;;;;;;;;;5039679;28;20033;-65
2023/09/06 01:11:26;;;;;;;22.80;21.55;;;;;;;;;;5036896;28;20646;-66
2023/09/06 01:13:58;;;;;;;22.88;21.58;;;;;;;;;;5039376;28;20040;-65
2023/09/06 01:16:33;;;;;;;23.55;22.25;;;;;;;;;;5039060;28;20018;-65
2023/09/06 01:18:59;;;;;;;21.48;20.30;;;;;;;;;;5043209;28;20417;-65
2023/09/06 01:21:29;;;;;;;22.13;20.92;;;;;;;;;;5040698;28;20033;-65
2023/09/06 01:23:55;;;;;;;23.65;22.35;;;;;;;;;;5038052;28;20041;-65
2023/09/06 01:26:22;;;;;;;23.63;22.25;;;;;;;;;;5038250;28;20418;-68
2023/09/06 01:28:49;;;;;;;22.60;21.38;;;;;;;;;;5044447;28;20047;-65
2023/09/06 01:31:15;;;;;;;24.00;22.10;;;;;;;;;;5035972;28;20032;-65
2023/09/06 01:33:41;;;;;;;23.13;21.85;;;;;;;;;;5037004;28;20040;-69
2023/09/06 01:36:07;;;;;;;25.98;24.58;;;;;;;;;;5039367;28;20056;-68
2023/09/06 01:38:33;;;;;;;30.65;28.95;;;;;;;;;;5022755;28;20029;-68
2023/09/06 01:40:59;;;;;;;31.63;29.95;;;;;;;;;;5038688;28;20108;-68
2023/09/06 01:43:24;;;;;;;34.75;32.90;;;;;;;;;;5039871;28;20025;-68
2023/09/06 01:45:50;;;;;;;28.25;26.75;;;;;;;;;;5039483;28;20136;-68
2023/09/06 01:48:19;;;;;;;26.30;24.75;;;;;;;;;;5037244;28;20040;-66
2023/09/06 01:50:45;;;;;;;28.48;27.00;;;;;;;;;;5040452;28;20427;-65
2023/09/06 01:53:13;;;;;;;32.42;30.70;;;;;;;;;;5037440;28;20351;-65
2023/09/06 01:55:42;;;;;;;24.98;23.55;;;;;;;;;;5043293;28;20036;-65
2023/09/06 01:58:11;;;;;;;24.77;23.45;;;;;;;;;;5036472;28;20044;-65
2023/09/06 02:00:37;;;;;;;22.73;21.48;;;;;;;;;;5026652;28;20041;-69
2023/09/06 02:03:04;;;;;;;22.25;21.02;;;;;;;;;;5038794;28;20052;-68
2023/09/06 02:05:32;;;;;;;24.77;23.42;;;;;;;;;;5038267;28;20045;-65
2023/09/06 02:07:58;;;;;;;25.42;24.08;;;;;;;;;;5037734;28;20051;-65
2023/09/06 02:10:23;;;;;;;31.23;29.48;;;;;;;;;;5039200;28;20029;-68
2023/09/06 02:12:48;;;;;;;33.50;31.58;;;;;;;;;;5051796;28;20106;-66
2023/09/06 02:15:14;;;;;;;32.58;30.90;;;;;;;;;;5034713;28;20926;-69
2023/09/06 02:17:42;;;;;;;26.02;24.58;;;;;;;;;;5038047;28;20371;-69
2023/09/06 02:20:17;;;;;;;22.75;21.55;;;;;;;;;;5040149;28;20142;-65
2023/09/06 02:23:00;;;;;;;27.33;25.75;;;;;;;;;;5040458;28;20116;-65
2023/09/06 02:25:30;;;;;;;24.77;23.45;;;;;;;;;;5039394;28;20044;-68
2023/09/06 02:27:57;;;;;;;25.45;24.08;;;;;;;;;;5036846;28;20057;-68
2023/09/06 02:30:22;;;;;;;23.15;21.90;;;;;;;;;;5036523;28;20052;-68
2023/09/06 02:32:49;;;;;;;25.30;23.90;;;;;;;;;;5040755;28;20256;-68
2023/09/06 02:35:15;;;;;;;24.80;23.45;;;;;;;;;;5036603;28;20037;-66
2023/09/06 02:37:40;;;;;;;28.60;27.08;;;;;;;;;;5037242;28;20063;-65
2023/09/06 02:40:09;;;;;;;26.90;25.48;;;;;;;;;;5037976;28;20279;-68
2023/09/06 02:42:36;;;;;;;25.80;24.42;;;;;;;;;;5040059;28;20040;-68
2023/09/06 02:45:04;;;;;;;29.70;28.13;;;;;;;;;;5037531;28;20021;-65
2023/09/06 02:47:30;;;;;;;31.40;29.77;;;;;;;;;;5037579;28;20032;-68
2023/09/06 02:49:55;;;;;;;34.00;31.23;;;;;;;;;;5024624;28;20052;-68
2023/09/06 02:52:30;;;;;;;33.40;31.60;;;;;;;;;;5037929;28;20123;-65
2023/09/06 02:54:59;;;;;;;31.15;29.45;;;;;;;;;;5038578;28;20055;-68
2023/09/06 02:57:28;;;;;;;31.75;30.10;;;;;;;;;;5040055;28;20152;-65
2023/09/06 02:59:54;;;;;;;34.30;32.55;;;;;;;;;;5038700;28;20056;-68
2023/09/06 03:02:20;;;;;;;36.13;34.17;;;;;;;;;;5034829;28;20034;-65
2023/09/06 03:04:45;;;;;;;35.90;34.05;;;;;;;;;;5035869;28;20041;-65
2023/09/06 03:07:10;;;;;;;35.25;33.35;;;;;;;;;;5039041;28;20044;-68
2023/09/06 03:09:39;;;;;;;34.22;32.42;;;;;;;;;;5041834;28;20036;-68
2023/09/06 03:12:14;;;;;;;31.30;29.65;;;;;;;;;;5039148;28;20037;-68
2023/09/06 03:14:44;;;;;;;29.88;28.30;;;;;;;;;;5037515;28;20040;-65
2023/09/06 03:17:18;;;;;;;29.67;27.98;;;;;;;;;;5035273;28;20044;-65
2023/09/06 03:19:45;;;;;;;27.73;26.17;;;;;;;;;;5033597;28;20375;-65
2023/09/06 03:22:12;;;;;;;25.63;24.25;;;;;;;;;;5034682;28;20242;-68
2023/09/06 03:24:43;;;;;;;24.50;23.17;;;;;;;;;;5034357;28;20033;-68
2023/09/06 03:27:15;;;;;;;22.95;21.73;;;;;;;;;;5035738;28;20041;-68
2023/09/06 03:29:40;;;;;;;23.77;22.50;;;;;;;;;;5041801;28;20064;-68
2023/09/06 03:32:10;;;;;;;25.92;24.55;;;;;;;;;;5033502;28;20406;-68
2023/09/06 03:34:36;;;;;;;25.73;24.38;;;;;;;;;;5029899;28;20060;-68
2023/09/06 03:37:05;;;;;;;25.67;24.27;;;;;;;;;;5035159;28;20535;-68
2023/09/06 03:39:32;;;;;;;27.63;26.15;;;;;;;;;;5037325;28;20056;-68
2023/09/06 03:42:00;;;;;;;29.65;28.05;;;;;;;;;;5032219;28;20036;-68
2023/09/06 03:44:27;;;;;;;30.83;29.08;;;;;;;;;;5032564;28;20052;-68
2023/09/06 03:46:56;;;;;;;32.95;31.23;;;;;;;;;;5035978;28;20048;-68
2023/09/06 03:49:23;;;;;;;32.13;30.45;;;;;;;;;;5031860;28;20425;-68
2023/09/06 03:51:49;;;;;;;33.88;32.13;;;;;;;;;;5034701;28;20037;-68
2023/09/06 03:54:17;;;;;;;33.72;31.95;;;;;;;;;;5036712;28;20029;-68
2023/09/06 03:56:43;;;;;;;31.65;30.00;;;;;;;;;;5039369;28;20482;-68
2023/09/06 03:59:09;;;;;;;30.73;29.13;;;;;;;;;;5023838;28;20600;-68
2023/09/06 04:01:34;;;;;;;30.65;29.00;;;;;;;;;;5042000;28;20070;-68
2023/09/06 04:04:01;;;;;;;34.72;32.92;;;;;;;;;;5025209;28;20063;-68
2023/09/06 04:06:28;;;;;;;30.92;29.30;;;;;;;;;;5041350;28;20171;-68
2023/09/06 04:08:54;;;;;;;30.63;29.02;;;;;;;;;;5039555;28;20503;-68
2023/09/06 04:11:19;;;;;;;28.85;27.35;;;;;;;;;;5040462;28;20045;-68
2023/09/06 04:13:45;;;;;;;33.20;31.23;;;;;;;;;;5036825;28;20531;-65
2023/09/06 04:16:10;;;;;;;31.08;29.45;;;;;;;;;;5038674;28;20033;-65
2023/09/06 04:18:35;;;;;;;30.55;28.95;;;;;;;;;;5023487;28;20037;-65
2023/09/06 04:21:07;;;;;;;29.77;28.20;;;;;;;;;;5039385;28;20086;-69
2023/09/06 04:23:33;;;;;;;30.55;28.98;;;;;;;;;;5040058;28;20094;-65
2023/09/06 04:26:00;;;;;;;33.10;31.35;;;;;;;;;;5041790;28;20036;-65
2023/09/06 04:28:26;;;;;;;30.50;28.90;;;;;;;;;;5040898;28;20033;-65
2023/09/06 04:30:52;;;;;;;32.63;30.92;;;;;;;;;;5043604;28;20047;-65
2023/09/06 04:33:18;;;;;;;34.35;32.58;;;;;;;;;;5040080;28;20032;-65
2023/09/06 04:35:45;;;;;;;38.50;36.50;;;;;;;;;;5041443;28;20025;-65
2023/09/06 04:38:12;;;;;;;37.17;35.25;;;;;;;;;;5025140;28;20174;-68
2023/09/06 04:40:38;;;;;;;40.88;38.75;;;;;;;;;;5041629;28;20045;-65
2023/09/06 04:43:07;;;;;;;41.22;38.97;;;;;;;;;;5028638;28;20047;-65
2023/09/06 04:45:33;;;;;;;37.25;35.15;;;;;;;;;;5040070;28;20022;-66
2023/09/06 04:47:58;;;;;;;38.95;36.67;;;;;;;;;;5040436;28;20094;-65
2023/09/06 04:50:24;;;;;;;40.85;38.75;;;;;;;;;;5042306;28;20036;-67
2023/09/06 04:52:50;;;;;;;34.08;32.30;;;;;;;;;;5040183;28;20060;-67
2023/09/06 04:55:19;;;;;;;32.22;30.58;;;;;;;;;;5040911;28;20415;-65
2023/09/06 04:57:45;;;;;;;32.95;31.23;;;;;;;;;;5041727;28;20440;-65
2023/09/06 05:00:17;;;;;;;34.80;32.95;;;;;;;;;;5038978;28;20025;-66
2023/09/06 05:02:46;;;;;;;43.22;40.95;;;;;;;;;;5040801;28;20120;-66
2023/09/06 05:05:13;;;;;;;49.80;47.22;;;;;;;;;;5041741;28;20502;-65
2023/09/06 05:07:38;;;;;;;55.17;52.35;;;;;;;;;;5039694;28;20047;-65
2023/09/06 05:10:04;;;;;;;64.63;61.33;;;;;;;;;;5041324;28;20041;-65
2023/09/06 05:12:29;;;;;;;62.88;59.60;;;;;;;;;;5036529;28;20041;-65
2023/09/06 05:14:55;;;;;;;66.32;62.97;;;;;;;;;;5039780;28;20032;-65
2023/09/06 05:17:21;;;;;;;62.67;59.45;;;;;;;;;;5039336;28;20120;-65
2023/09/06 05:19:52;;;;;;;63.30;60.10;;;;;;;;;;5041942;28;20510;-65
2023/09/06 05:22:18;;;;;;;69.30;65.80;;;;;;;;;;5041682;28;20021;-65
2023/09/06 05:24:43;;;;;;;78.25;74.35;;;;;;;;;;5036755;28;20097;-64
2023/09/06 05:27:08;;;;;;;71.53;67.93;;;;;;;;;;5041222;28;20029;-64
2023/09/06 05:29:34;;;;;;;77.93;74.03;;;;;;;;;;5043367;28;20025;-65
2023/09/06 05:31:59;;;;;;;83.45;79.28;;;;;;;;;;5040293;28;20574;-65
2023/09/06 05:34:25;;;;;;;84.25;80.05;;;;;;;;;;5032112;28;20040;-64
2023/09/06 05:36:51;;;;;;;90.63;86.13;;;;;;;;;;5038664;28;20040;-65
2023/09/06 05:39:16;;;;;;;94.63;89.90;;;;;;;;;;5039635;28;20037;-64
2023/09/06 05:41:41;;;;;;;97.13;92.18;;;;;;;;;;5038748;28;20095;-64
2023/09/06 05:44:07;;;;;;;89.70;85.20;;;;;;;;;;5053866;28;20087;-65
2023/09/06 05:46:33;;;;;;;89.05;84.55;;;;;;;;;;5038157;28;20087;-64
2023/09/06 05:48:58;;;;;;;84.90;80.63;;;;;;;;;;5036769;28;20033;-64
2023/09/06 05:51:24;;;;;;;82.03;77.95;;;;;;;;;;5037654;28;20045;-64
2023/09/06 05:53:49;;;;;;;76.55;72.75;;;;;;;;;;5039082;28;20036;-64
2023/09/06 05:56:15;;;;;;;74.18;70.28;;;;;;;;;;5039787;28;20795;-64
2023/09/06 05:58:40;;;;;;;69.78;66.28;;;;;;;;;;5040833;28;20029;-64
2023/09/06 06:01:11;;;;;;;59.40;55.72;;;;;;;;;;5040420;28;20133;-69
2023/09/06 06:03:37;;;;;;;61.17;57.63;;;;;;;;;;5040722;28;20033;-69
2023/09/06 06:06:06;;;;;;;49.67;47.10;;;;;;;;;;5041217;28;20033;-69
2023/09/06 06:08:31;;;;;;;51.75;49.10;;;;;;;;;;5042097;28;20107;-68
2023/09/06 06:10:56;;;;;;;41.40;39.28;;;;;;;;;;5038552;28;20108;-71
2023/09/06 06:13:22;;;;;;;42.05;39.90;;;;;;;;;;5038592;28;20066;-69
2023/09/06 06:15:48;;;;;;;42.80;40.45;;;;;;;;;;5035393;28;20090;-64
2023/09/06 06:18:15;;;;;;;33.35;31.63;;;;;;;;;;5035199;28;20025;-69
2023/09/06 06:20:41;;;;;;;32.80;31.02;;;;;;;;;;5035503;28;20434;-65
2023/09/06 06:23:06;;;;;;;36.67;33.65;;;;;;;;;;5037252;28;20033;-65
2023/09/06 06:25:31;;;;;;;33.08;31.33;;;;;;;;;;5035873;28;20021;-65
2023/09/06 06:27:57;;;;;;;29.38;27.77;;;;;;;;;;5036117;28;20090;-69
2023/09/06 06:30:22;;;;;;;27.80;26.30;;;;;;;;;;5038488;28;20112;-70
2023/09/06 06:32:47;;;;;;;23.75;22.45;;;;;;;;;;5038824;28;20051;-70
2023/09/06 06:35:12;;;;;;;25.88;24.48;;;;;;;;;;5038893;28;20040;-69
2023/09/06 06:37:38;;;;;;;22.77;21.52;;;;;;;;;;5038490;28;20029;-65
2023/09/06 06:40:05;;;;;;;18.92;17.88;;;;;;;;;;5037154;28;20044;-65
2023/09/06 06:42:38;;;;;;;18.75;17.67;;;;;;;;;;5037724;28;20017;-65
2023/09/06 06:45:04;;;;;;;17.90;16.90;;;;;;;;;;5023414;28;20033;-66
2023/09/06 06:47:30;;;;;;;18.98;17.90;;;;;;;;;;5038204;28;20037;-65
2023/09/06 06:49:55;;;;;;;18.83;17.75;;;;;;;;;;5022986;28;20427;-65
2023/09/06 06:52:20;;;;;;;20.42;19.27;;;;;;;;;;5037477;28;20507;-69
2023/09/06 06:54:46;;;;;;;21.52;20.33;;;;;;;;;;5036747;28;20036;-65
2023/09/06 06:57:12;;;;;;;21.83;20.63;;;;;;;;;;5036248;28;20537;-65
2023/09/06 06:59:38;;;;;;;21.38;20.20;;;;;;;;;;5035178;28;20460;-70
2023/09/06 07:02:03;;;;;;;23.15;21.85;;;;;;;;;;5036724;28;20034;-69
2023/09/06 07:04:29;;;;;;;27.95;26.40;;;;;;;;;;5023445;28;20028;-66
2023/09/06 07:06:54;;;;;;;29.70;28.17;;;;;;;;;;5038391;28;20037;-69
2023/09/06 07:09:19;;;;;;;28.88;27.33;;;;;;;;;;5040777;28;20124;-69
2023/09/06 07:11:45;;;;;;;28.58;26.65;;;;;;;;;;5037405;28;20080;-65
2023/09/06 07:14:10;;;;;;;21.00;19.88;;;;;;;;;;5023903;28;20472;-71
2023/09/06 07:16:35;;;;;;;16.33;15.23;;;;;;;;;;5024086;28;20079;-70
2023/09/06 07:19:01;;;;;;;17.00;16.00;;;;;;;;;;5039937;28;20025;-70
2023/09/06 07:21:28;;;;;;;19.35;17.42;;;;;;;;;;5038467;28;20041;-70
2023/09/06 07:23:53;;;;;;;18.17;17.08;;;;;;;;;;5038543;28;20039;-70
2023/09/06 07:26:19;;;;;;;19.75;17.92;;;;;;;;;;5036349;28;20037;-70
2023/09/06 07:28:46;;;;;;;21.40;20.23;;;;;;;;;;5035741;28;20530;-70
2023/09/06 07:31:12;;;;;;;28.50;26.92;;;;;;;;;;5036571;28;20036;-65
2023/09/06 07:33:38;;;;;;;32.20;30.52;;;;;;;;;;5038061;28;20028;-65
2023/09/06 07:36:04;;;;;;;23.27;21.98;;;;;;;;;;5035811;28;20040;-65
2023/09/06 07:38:30;;;;;;;39.58;37.50;;;;;;;;;;5035013;28;20034;-71
2023/09/06 07:41:00;;;;;;;54.88;52.08;;;;;;;;;;5035484;28;20280;-70
2023/09/06 07:43:28;;;;;;;49.42;46.75;;;;;;;;;;5038595;28;20033;-69
2023/09/06 07:45:57;;;;;;;58.42;55.45;;;;;;;;;;5039108;28;20116;-70
2023/09/06 07:48:31;;;;;;;57.25;54.25;;;;;;;;;;5020775;28;20491;-69
2023/09/06 07:50:58;;;;;;;62.50;59.35;;;;;;;;;;5036975;28;20390;-65
2023/09/06 07:53:25;;;;;;;72.97;69.35;;;;;;;;;;5037058;28;20033;-66
2023/09/06 07:55:51;;;;;;;68.03;64.60;;;;;;;;;;5039999;28;20037;-65
2023/09/06 07:58:17;;;;;;;68.88;65.43;;;;;;;;;;5039605;28;20037;-70
2023/09/06 08:00:43;;;;;;;64.15;60.92;;;;;;;;;;5033901;28;20464;-70
2023/09/06 08:03:09;;;;;;;68.75;65.25;;;;;;;;;;5033822;28;20025;-70
2023/09/06 08:05:37;;;;;;;80.82;76.80;;;;;;;;;;5033887;28;20068;-65
2023/09/06 08:08:05;;;;;;;73.43;69.78;;;;;;;;;;5033854;28;20033;-65
2023/09/06 08:10:30;;;;;;;96.32;91.53;;;;;;;;;;5034391;28;20495;-70
2023/09/06 08:12:55;;;;;;;73.07;69.38;;;;;;;;;;5034492;28;20064;-70
2023/09/06 08:15:22;;;;;;;112.25;106.72;;;;;;;;;;5035552;28;20029;-70
2023/09/06 08:17:48;;;;;;;43.03;40.83;;;;;;;;;;5036657;28;20037;-65
2023/09/06 08:20:15;;;;;;;41.60;38.88;;;;;;;;;;5037690;28;20549;-66
2023/09/06 08:22:47;;;;;;;37.78;35.80;;;;;;;;;;5035431;28;20399;-66
2023/09/06 08:25:13;;;;;;;33.90;32.05;;;;;;;;;;5036595;28;20091;-72
2023/09/06 08:27:39;;;;;;;67.80;64.40;;;;;;;;;;5037366;28;20124;-71
2023/09/06 08:30:07;;;;;;;141.10;134.23;;;;;;;;;;5034357;28;20119;-71
2023/09/06 08:32:32;;;;;;;136.82;130.18;;;;;;;;;;5039726;28;20043;-66
2023/09/06 08:34:58;;;;;;;111.43;105.93;;;;;;;;;;5017082;28;20033;-72
2023/09/06 08:37:23;;;;;;;174.98;166.48;;;;;;;;;;5034079;28;20033;-72
2023/09/06 08:39:49;;;;;;;96.95;92.03;;;;;;;;;;5033768;28;20035;-72
2023/09/06 08:42:16;;;;;;;228.77;217.70;;;;;;;;;;5035899;28;20469;-73
2023/09/06 08:44:45;;;;;;;230.00;218.73;;;;;;;;;;5039033;28;20132;-72
2023/09/06 08:47:12;;;;;;;222.90;212.10;;;;;;;;;;5038668;28;20036;-72
2023/09/06 08:49:39;;;;;;;262.48;249.73;;;;;;;;;;5041649;28;20044;-65
2023/09/06 08:52:05;;;;;;;302.52;287.70;;;;;;;;;;5025922;28;20518;-73
2023/09/06 08:54:31;;;;;;;316.95;301.38;;;;;;;;;;5040539;28;20040;-72
2023/09/06 08:56:57;;;;;;;278.63;265.02;;;;;;;;;;5021363;28;20510;-73
2023/09/06 08:59:24;;;;;;;292.05;277.73;;;;;;;;;;5034767;28;20049;-66
2023/09/06 09:01:50;;;;;;;164.52;156.40;;;;;;;;;;5040754;28;20040;-66
2023/09/06 09:04:15;;;;;;;157.98;149.90;;;;;;;;;;5037137;28;20033;-65
2023/09/06 09:06:43;;;;;;;276.80;263.10;;;;;;;;;;5038275;28;20032;-73
2023/09/06 09:09:27;;;;;;;196.50;186.90;;;;;;;;;;5038020;28;20340;-73
2023/09/06 09:11:53;;;;;;;183.05;174.13;;;;;;;;;;5020281;28;20179;-66
2023/09/06 09:14:23;;;;;;;225.38;214.32;;;;;;;;;;5038785;28;20044;-67
2023/09/06 09:16:59;;;;;;;225.05;214.05;;;;;;;;;;5021584;28;20444;-65
2023/09/06 09:19:25;;;;;;;212.38;202.00;;;;;;;;;;5037639;28;20049;-66
2023/09/06 09:21:51;;;;;;;171.82;163.32;;;;;;;;;;5040996;28;20029;-66
2023/09/06 09:24:29;;;;;;;149.75;142.32;;;;;;;;;;5036645;28;20464;-67
2023/09/06 09:26:59;;;;;;;158.27;150.48;;;;;;;;;;5053224;28;20056;-66
2023/09/06 09:29:25;;;;;;;110.95;105.47;;;;;;;;;;5040073;28;20071;-66
2023/09/06 09:31:50;;;;;;;136.02;129.23;;;;;;;;;;5038310;28;20064;-73
2023/09/06 09:34:16;;;;;;;120.18;114.22;;;;;;;;;;5035874;28;20033;-72
2023/09/06 09:36:50;;;;;;;100.72;95.68;;;;;;;;;;5037670;28;20119;-66
2023/09/06 09:39:16;;;;;;;106.72;101.45;;;;;;;;;;5039219;28;20037;-73
2023/09/06 09:41:43;;;;;;;99.55;94.65;;;;;;;;;;5038771;28;20033;-66
2023/09/06 09:44:15;;;;;;;102.45;97.40;;;;;;;;;;5020890;28;20416;-66
2023/09/06 09:46:43;;;;;;;109.82;104.43;;;;;;;;;;5038606;28;20400;-73
2023/09/06 09:49:10;;;;;;;90.78;86.30;;;;;;;;;;5034847;28;20629;-64
2023/09/06 09:51:37;;;;;;;95.55;90.85;;;;;;;;;;5037442;28;20383;-65
2023/09/06 09:54:04;;;;;;;102.65;97.53;;;;;;;;;;5038524;28;20076;-73
2023/09/06 09:56:32;;;;;;;67.43;64.07;;;;;;;;;;5038504;28;20108;-65
2023/09/06 09:59:00;;;;;;;64.97;61.72;;;;;;;;;;5039919;28;20037;-65
2023/09/06 10:01:27;;;;;;;35.15;33.33;;;;;;;;;;5041545;28;20043;-65
2023/09/06 10:03:58;;;;;;;38.78;36.78;;;;;;;;;;5035739;28;20557;-74
2023/09/06 10:06:26;;;;;;;;;;;;;;;;;;5042477;28;20033;-74
2023/09/06 10:08:56;;;;;;;22.90;21.60;;;;;;;;;;5035159;28;19916;-73
2023/09/06 10:11:22;;;;;;;22.73;21.45;;;;;;;;;;5036118;28;20037;-73
2023/09/06 10:13:47;;;;;;;26.90;25.50;;;;;;;;;;5034876;28;20033;-74
2023/09/06 10:16:14;;;;;;;22.00;20.80;;;;;;;;;;5035183;28;20510;-65
2023/09/06 10:18:39;;;;;;;29.90;28.30;;;;;;;;;;5037665;28;20036;-66
2023/09/06 10:21:06;;;;;;;21.95;20.75;;;;;;;;;;5036085;28;20037;-74
2023/09/06 10:23:34;;;;;;;23.15;21.85;;;;;;;;;;5035621;28;20461;-66
2023/09/06 10:26:01;;;;;;;21.83;20.60;;;;;;;;;;5036150;28;20087;-65
2023/09/06 10:28:31;;;;;;;22.83;21.63;;;;;;;;;;5036676;28;20047;-65
2023/09/06 10:31:07;;;;;;;;;;;;;;;;;;5038704;28;20056;-66
2023/09/06 10:33:35;;;;;;;30.60;28.98;;;;;;;;;;5020643;28;19913;-66
2023/09/06 10:36:07;;;;;;;24.20;22.90;;;;;;;;;;5034656;28;20021;-66
2023/09/06 10:38:35;;;;;;;23.05;21.75;;;;;;;;;;5034795;28;20116;-65
2023/09/06 10:41:00;;;;;;;23.38;22.08;;;;;;;;;;5034810;28;20140;-66
2023/09/06 10:43:42;;;;;;;24.33;23.00;;;;;;;;;;5034186;28;20115;-75
2023/09/06 10:46:07;;;;;;;24.00;22.70;;;;;;;;;;5021816;28;20036;-75
2023/09/06 10:48:32;;;;;;;21.80;20.60;;;;;;;;;;5035912;28;20038;-65
2023/09/06 10:51:18;;;;;;;21.67;20.48;;;;;;;;;;5038074;28;20468;-66
2023/09/06 10:53:47;;;;;;;23.30;22.00;;;;;;;;;;5034665;28;20551;-75
2023/09/06 10:56:13;;;;;;;21.98;20.77;;;;;;;;;;5036812;28;20602;-75
2023/09/06 10:58:38;;;;;;;23.17;21.98;;;;;;;;;;5034739;28;20104;-65
2023/09/06 11:01:12;;;;;;;24.13;22.83;;;;;;;;;;5037352;28;20044;-74
2023/09/06 11:03:38;;;;;;;23.38;22.08;;;;;;;;;;5023274;28;20033;-74
2023/09/06 11:06:07;;;;;;;24.83;23.50;;;;;;;;;;5034908;28;20116;-74
2023/09/06 11:08:33;;;;;;;23.52;22.02;;;;;;;;;;5019233;28;20460;-66
2023/09/06 11:11:03;;;;;;;23.85;22.55;;;;;;;;;;5037225;28;20375;-66
2023/09/06 11:13:33;;;;;;;25.80;24.40;;;;;;;;;;5032909;28;20087;-66
2023/09/06 11:15:59;;;;;;;32.28;30.55;;;;;;;;;;5033513;28;20127;-64
2023/09/06 11:18:30;;;;;;;50.17;47.60;;;;;;;;;;5033951;28;20139;-65
2023/09/06 11:20:56;;;;;;;50.60;48.03;;;;;;;;;;5025086;28;20037;-66
2023/09/06 11:23:22;;;;;;;70.95;67.40;;;;;;;;;;5034134;28;20029;-65
2023/09/06 11:25:54;;;;;;;87.63;83.25;;;;;;;;;;5038014;28;20031;-74
2023/09/06 11:28:19;;;;;;;61.45;58.38;;;;;;;;;;5033145;28;20037;-65
2023/09/06 11:30:49;;;;;;;85.53;81.25;;;;;;;;;;5036899;28;20090;-74
2023/09/06 11:33:16;;;;;;;72.00;68.43;;;;;;;;;;5038221;28;20033;-66
2023/09/06 11:35:48;;;;;;;69.70;66.22;;;;;;;;;;5037207;28;20045;-65
2023/09/06 11:38:16;;;;;;;72.03;68.45;;;;;;;;;;5035846;28;20204;-65
2023/09/06 11:40:43;;;;;;;107.43;102.13;;;;;;;;;;5036227;28;20029;-74
2023/09/06 11:43:11;;;;;;;76.57;72.78;;;;;;;;;;5036701;28;20431;-72
2023/09/06 11:45:40;;;;;;;63.58;60.38;;;;;;;;;;5025488;28;20452;-72
2023/09/06 11:48:07;;;;;;;101.45;96.47;;;;;;;;;;5039965;28;20337;-65
2023/09/06 11:50:36;;;;;;;81.95;77.75;;;;;;;;;;5033957;28;20056;-66
2023/09/06 11:53:04;;;;;;;76.10;72.32;;;;;;;;;;5035610;28;20096;-65
2023/09/06 11:55:33;;;;;;;96.38;91.57;;;;;;;;;;5023507;28;20097;-74
2023/09/06 11:57:59;;;;;;;98.90;94.03;;;;;;;;;;5035254;28;20577;-74
2023/09/06 12:00:36;;;;;;;86.45;82.18;;;;;;;;;;5034681;28;20037;-71
2023/09/06 12:03:07;;;;;;;111.47;106.00;;;;;;;;;;5036075;28;20303;-73
2023/09/06 12:05:37;;;;;;;110.53;105.03;;;;;;;;;;5038143;28;20037;-66
2023/09/06 12:08:03;;;;;;;89.43;84.85;;;;;;;;;;5036694;28;20131;-65
2023/09/06 12:10:29;;;;;;;84.07;79.93;;;;;;;;;;5035870;28;20147;-66
2023/09/06 12:12:56;;;;;;;98.80;93.90;;;;;;;;;;5035698;28;20176;-66
2023/09/06 12:15:25;;;;;;;89.40;85.00;;;;;;;;;;5035266;28;20176;-66
2023/09/06 12:17:50;;;;;;;101.25;96.22;;;;;;;;;;5038799;28;20472;-66
2023/09/06 12:20:20;;;;;;;93.43;88.80;;;;;;;;;;5024535;28;20056;-65
2023/09/06 12:22:46;;;;;;;111.97;106.47;;;;;;;;;;5025687;28;20048;-65
2023/09/06 12:25:14;;;;;;;103.45;98.35;;;;;;;;;;5039809;28;20106;-65
2023/09/06 12:27:41;;;;;;;95.45;90.72;;;;;;;;;;5040932;28;20076;-71
2023/09/06 12:30:08;;;;;;;72.20;68.55;;;;;;;;;;5040075;28;20045;-65
2023/09/06 12:32:34;;;;;;;93.88;88.15;;;;;;;;;;5024944;28;20037;-68
2023/09/06 12:35:00;;;;;;;63.65;60.33;;;;;;;;;;5039114;28;20059;-61
2023/09/06 12:37:26;;;;;;;62.72;59.60;;;;;;;;;;5039888;28;20025;-70
2023/09/06 12:39:52;;;;;;;66.00;62.70;;;;;;;;;;5038071;28;20048;-62
2023/09/06 12:42:17;;;;;;;69.00;65.53;;;;;;;;;;5041203;28;20033;-70
2023/09/06 12:44:43;;;;;;;68.80;65.35;;;;;;;;;;5022548;28;20029;-63
2023/09/06 12:47:08;;;;;;;66.60;63.30;;;;;;;;;;5040720;28;20140;-62
2023/09/06 12:49:34;;;;;;;69.88;66.40;;;;;;;;;;5040627;28;20051;-63
2023/09/06 12:51:59;;;;;;;66.53;63.22;;;;;;;;;;5036440;28;20136;-70
2023/09/06 12:54:25;;;;;;;60.45;57.13;;;;;;;;;;5038901;28;20435;-71
2023/09/06 12:56:50;;;;;;;64.68;61.47;;;;;;;;;;5023040;28;20418;-70
2023/09/06 12:59:16;;;;;;;68.47;65.03;;;;;;;;;;5043370;28;20301;-71
2023/09/06 13:01:42;;;;;;;63.78;60.45;;;;;;;;;;5039665;28;20775;-71
2023/09/06 13:04:07;;;;;;;66.03;62.72;;;;;;;;;;5052686;28;20128;-69
2023/09/06 13:06:33;;;;;;;68.13;64.72;;;;;;;;;;5021237;28;20025;-68
2023/09/06 13:08:58;;;;;;;63.30;60.10;;;;;;;;;;5021934;28;20116;-69
2023/09/06 13:11:23;;;;;;;65.97;62.67;;;;;;;;;;5042877;28;20043;-62
2023/09/06 13:13:49;;;;;;;65.45;62.05;;;;;;;;;;5037012;28;20033;-63
2023/09/06 13:16:14;;;;;;;61.65;58.55;;;;;;;;;;5041548;28;20440;-64
2023/09/06 13:18:41;;;;;;;65.22;61.92;;;;;;;;;;5038171;28;20082;-63
2023/09/06 13:21:06;;;;;;;65.43;62.13;;;;;;;;;;5036470;28;20479;-72
2023/09/06 13:23:32;;;;;;;61.33;58.25;;;;;;;;;;5037437;28;20108;-63
2023/09/06 13:25:59;;;;;;;61.55;58.47;;;;;;;;;;5036335;28;20487;-63
2023/09/06 13:28:24;;;;;;;67.18;63.72;;;;;;;;;;5038968;28;20071;-61
2023/09/06 13:30:49;;;;;;;63.22;60.03;;;;;;;;;;5042074;28;20036;-62
2023/09/06 13:33:15;;;;;;;65.25;61.97;;;;;;;;;;5035473;28;20037;-69
2023/09/06 13:35:40;;;;;;;65.47;62.20;;;;;;;;;;5038048;28;20047;-64
2023/09/06 13:38:06;;;;;;;65.20;61.95;;;;;;;;;;5035689;28;20371;-62
2023/09/06 13:40:32;;;;;;;63.38;60.17;;;;;;;;;;5039665;28;20395;-67
2023/09/06 13:42:57;;;;;;;60.25;57.25;;;;;;;;;;5037868;28;20116;-62
2023/09/06 13:45:22;;;;;;;66.20;62.90;;;;;;;;;;5035812;28;20111;-62
2023/09/06 13:47:48;;;;;;;64.30;61.00;;;;;;;;;;5037847;28;20683;-69
2023/09/06 13:50:14;;;;;;;65.72;62.42;;;;;;;;;;5037757;28;20076;-68
2023/09/06 13:52:40;;;;;;;65.22;61.88;;;;;;;;;;5036294;28;20033;-68
2023/09/06 13:55:05;;;;;;;63.65;60.45;;;;;;;;;;5019478;28;20543;-62
2023/09/06 13:57:31;;;;;;;60.75;57.67;;;;;;;;;;5038356;28;20037;-68
2023/09/06 13:59:56;;;;;;;61.45;58.38;;;;;;;;;;5038108;28;20041;-69
2023/09/06 14:02:21;;;;;;;61.83;58.72;;;;;;;;;;5025814;28;20124;-68
2023/09/06 14:04:47;;;;;;;61.20;58.10;;;;;;;;;;5037887;28;20143;-62
2023/09/06 14:07:13;;;;;;;63.70;60.47;;;;;;;;;;5037226;28;20091;-63
2023/09/06 14:09:39;;;;;;;59.42;56.38;;;;;;;;;;5024334;28;20078;-69
2023/09/06 14:12:04;;;;;;;64.90;61.60;;;;;;;;;;5036220;28;20037;-62
2023/09/06 14:14:30;;;;;;;56.25;53.45;;;;;;;;;;5040170;28;20066;-71